createdAt,value
2023-12-22T00:00:16.083Z,2488.00
2023-12-22T00:01:16.210Z,2486.00
2023-12-22T00:02:16.372Z,2486.00
2023-12-22T00:03:16.321Z,2489.00
2023-12-22T00:04:16.401Z,2487.00
2023-12-22T00:05:16.455Z,2488.00
2023-12-22T00:06:16.585Z,2484.00
2023-12-22T00:07:16.675Z,2484.00
2023-12-22T00:08:16.707Z,2481.00
2023-12-22T00:09:16.766Z,2482.00
2023-12-22T00:10:16.843Z,2480.00
2023-12-22T00:11:16.911Z,2476.00
2023-12-22T00:12:16.996Z,2473.00
2023-12-22T00:13:17.107Z,2474.00
2023-12-22T00:14:17.215Z,2476.00
2023-12-22T00:15:17.225Z,2471.00
2023-12-22T00:16:17.329Z,2471.00
2023-12-22T00:17:17.377Z,2469.00
2023-12-22T00:18:17.543Z,2466.00
2023-12-22T00:19:17.593Z,2469.00
2023-12-22T00:20:17.839Z,2468.00
2023-12-22T00:21:17.710Z,2465.00
2023-12-22T00:22:17.811Z,2464.00
2023-12-22T00:23:17.839Z,2460.00
2023-12-22T00:24:17.913Z,2458.00
2023-12-22T00:25:17.999Z,2455.00
2023-12-22T00:26:18.087Z,2452.00
2023-12-22T00:27:18.143Z,2451.00
2023-12-22T00:28:18.251Z,2450.00
2023-12-22T00:29:20.558Z,2449.00
2023-12-22T00:30:18.321Z,2452.00
2023-12-22T00:31:18.403Z,2450.00
2023-12-22T00:32:18.419Z,2446.00
2023-12-22T00:33:18.479Z,2439.00
2023-12-22T00:34:18.450Z,2436.00
2023-12-22T00:35:18.453Z,2433.00
2023-12-22T00:36:18.466Z,2434.00
2023-12-22T00:37:18.527Z,2433.00
2023-12-22T00:38:18.522Z,2431.00
2023-12-22T00:39:18.547Z,2431.00
2023-12-22T00:40:18.594Z,2429.00
2023-12-22T00:41:18.604Z,2432.00
2023-12-22T00:42:18.625Z,2431.00
2023-12-22T00:43:18.720Z,2430.00
2023-12-22T00:44:18.710Z,2431.00
2023-12-22T00:45:18.699Z,2435.00
2023-12-22T00:46:18.773Z,2431.00
2023-12-22T00:47:18.762Z,2430.00
2023-12-22T00:48:18.836Z,2422.00
2023-12-22T00:49:19.009Z,2417.00
2023-12-22T00:50:18.839Z,2415.00
2023-12-22T00:51:18.892Z,2414.00
2023-12-22T00:52:19.006Z,2411.00
2023-12-22T00:53:18.952Z,2408.00
2023-12-22T00:54:18.950Z,2408.00
2023-12-22T00:55:18.986Z,2410.00
2023-12-22T00:56:19.019Z,2411.00
2023-12-22T00:57:19.042Z,2412.00
2023-12-22T00:58:19.165Z,2410.00
2023-12-22T00:59:19.159Z,2410.00
2023-12-22T01:00:19.137Z,2405.00
2023-12-22T01:01:19.208Z,2402.00
2023-12-22T01:02:19.194Z,2399.00
2023-12-22T01:03:19.261Z,2397.00
2023-12-22T01:04:19.321Z,2399.00
2023-12-22T01:05:19.410Z,2400.00
2023-12-22T01:06:21.394Z,2401.00
2023-12-22T01:07:19.330Z,2400.00
2023-12-22T01:08:19.383Z,2404.00
2023-12-22T01:09:19.376Z,2403.00
2023-12-22T01:10:19.431Z,2407.00
2023-12-22T01:11:19.430Z,2409.00
2023-12-22T01:12:19.465Z,2405.00
2023-12-22T01:13:19.504Z,2402.00
2023-12-22T01:14:19.511Z,2401.00
2023-12-22T01:15:19.521Z,2399.00
2023-12-22T01:16:19.577Z,2397.00
2023-12-22T01:17:19.599Z,2394.00
2023-12-22T01:18:19.642Z,2392.00
2023-12-22T01:19:19.646Z,2387.00
2023-12-22T01:20:19.691Z,2385.00
2023-12-22T01:21:19.727Z,2387.00
2023-12-22T01:22:19.894Z,2388.00
2023-12-22T01:23:19.776Z,2383.00
2023-12-22T01:24:19.790Z,2374.00
2023-12-22T01:25:19.845Z,2370.00
2023-12-22T01:26:19.870Z,2371.00
2023-12-22T01:27:19.887Z,2375.00
2023-12-22T01:28:19.989Z,2374.00
2023-12-22T01:29:19.980Z,2369.00
2023-12-22T01:30:20.001Z,2365.00
2023-12-22T01:31:20.044Z,2367.00
2023-12-22T01:32:20.030Z,2362.00
2023-12-22T01:33:20.144Z,2362.00
2023-12-22T01:34:20.132Z,2360.00
2023-12-22T01:35:20.117Z,2362.00
2023-12-22T01:36:20.146Z,2363.00
2023-12-22T01:37:20.207Z,2361.00
2023-12-22T01:38:20.193Z,2356.00
2023-12-22T01:39:20.228Z,2349.00
2023-12-22T01:40:20.296Z,2340.00
2023-12-22T01:41:20.306Z,2338.00
2023-12-22T01:42:20.301Z,2335.00
2023-12-22T01:43:20.383Z,2330.00
2023-12-22T01:44:20.357Z,2329.00
2023-12-22T01:45:20.384Z,2333.00
2023-12-22T01:46:20.458Z,2337.00
2023-12-22T01:47:20.440Z,2339.00
2023-12-22T01:48:20.702Z,2339.00
2023-12-22T01:49:20.579Z,2336.00
2023-12-22T01:50:20.600Z,2335.00
2023-12-22T01:51:20.537Z,2332.00
2023-12-22T01:52:20.674Z,2329.00
2023-12-22T01:53:20.660Z,2330.00
2023-12-22T01:54:20.744Z,2325.00
2023-12-22T01:55:20.869Z,2318.00
2023-12-22T01:56:20.895Z,2324.00
2023-12-22T01:57:20.959Z,2324.00
2023-12-22T01:58:21.125Z,2324.00
2023-12-22T01:59:21.102Z,2321.00
2023-12-22T02:00:21.172Z,2320.00
2023-12-22T02:01:22.050Z,2318.00
2023-12-22T02:02:21.337Z,2314.00
2023-12-22T02:03:21.440Z,2317.00
2023-12-22T02:04:21.474Z,2318.00
2023-12-22T02:05:21.634Z,2315.00
2023-12-22T02:06:21.639Z,2314.00
2023-12-22T02:07:21.707Z,2313.00
2023-12-22T02:08:21.779Z,2312.00
2023-12-22T02:09:21.843Z,2311.00
2023-12-22T02:10:21.921Z,2307.00
2023-12-22T02:11:21.976Z,2308.00
2023-12-22T02:12:22.055Z,2310.00
2023-12-22T02:13:22.221Z,2310.00
2023-12-22T02:14:22.211Z,2311.00
2023-12-22T02:15:22.261Z,2307.00
2023-12-22T02:16:22.390Z,2298.00
2023-12-22T02:17:22.409Z,2291.00
2023-12-22T02:18:22.538Z,2289.00
2023-12-22T02:19:22.581Z,2287.00
2023-12-22T02:20:22.614Z,2285.00
2023-12-22T02:21:22.687Z,2283.00
2023-12-22T02:22:22.771Z,2276.00
2023-12-22T02:23:22.835Z,2280.00
2023-12-22T02:24:22.914Z,2279.00
2023-12-22T02:25:23.042Z,2281.00
2023-12-22T02:26:23.058Z,2278.00
2023-12-22T02:27:23.141Z,2274.00
2023-12-22T02:28:23.228Z,2273.00
2023-12-22T02:29:23.295Z,2270.00
2023-12-22T02:30:23.367Z,2267.00
2023-12-22T02:31:23.440Z,2265.00
2023-12-22T02:32:23.501Z,2264.00
2023-12-22T02:33:23.563Z,2268.00
2023-12-22T02:34:23.693Z,2265.00
2023-12-22T02:35:23.795Z,2266.00
2023-12-22T02:36:23.791Z,2264.00
2023-12-22T02:37:23.931Z,2263.00
2023-12-22T02:38:23.922Z,2263.00
2023-12-22T02:39:24.008Z,2265.00
2023-12-22T02:40:24.092Z,2266.00
2023-12-22T02:41:24.171Z,2264.00
2023-12-22T02:42:24.221Z,2268.00
2023-12-22T02:43:24.306Z,2266.00
2023-12-22T02:44:24.363Z,2264.00
2023-12-22T02:45:24.422Z,2262.00
2023-12-22T02:46:25.472Z,2262.00
2023-12-22T02:47:24.631Z,2257.00
2023-12-22T02:48:24.670Z,2253.00
2023-12-22T02:49:24.762Z,2252.00
2023-12-22T02:50:24.772Z,2256.00
2023-12-22T02:51:24.837Z,2254.00
2023-12-22T02:52:24.945Z,2255.00
2023-12-22T02:53:24.978Z,2255.00
2023-12-22T02:54:25.059Z,2255.00
2023-12-22T02:55:25.129Z,2253.00
2023-12-22T02:56:25.205Z,2254.00
2023-12-22T02:57:25.248Z,2251.00
2023-12-22T02:58:25.370Z,2249.00
2023-12-22T02:59:25.534Z,2247.00
2023-12-22T03:00:25.481Z,2239.00
2023-12-22T03:01:25.573Z,2231.00
2023-12-22T03:02:25.591Z,2230.00
2023-12-22T03:03:25.668Z,2228.00
2023-12-22T03:04:25.758Z,2226.00
2023-12-22T03:05:25.856Z,2227.00
2023-12-22T03:06:25.863Z,2228.00
2023-12-22T03:07:25.959Z,2230.00
2023-12-22T03:08:26.093Z,2230.00
2023-12-22T03:09:26.047Z,2233.00
2023-12-22T03:10:26.147Z,2234.00
2023-12-22T03:11:26.184Z,2234.00
2023-12-22T03:12:26.228Z,2235.00
2023-12-22T03:13:26.297Z,2232.00
2023-12-22T03:14:26.351Z,2230.00
2023-12-22T03:15:26.418Z,2228.00
2023-12-22T03:16:26.488Z,2227.00
2023-12-22T03:17:26.565Z,2227.00
2023-12-22T03:18:26.661Z,2222.00
2023-12-22T03:19:26.737Z,2218.00
2023-12-22T03:20:26.718Z,2214.00
2023-12-22T03:21:26.782Z,2216.00
2023-12-22T03:22:26.900Z,2215.00
2023-12-22T03:23:26.910Z,2211.00
2023-12-22T03:24:29.665Z,2208.00
2023-12-22T03:25:27.004Z,2204.00
2023-12-22T03:26:27.015Z,2202.00
2023-12-22T03:27:27.024Z,2198.00
2023-12-22T03:28:27.061Z,2199.00
2023-12-22T03:29:27.237Z,2196.00
2023-12-22T03:30:27.159Z,2188.00
2023-12-22T03:31:27.122Z,2182.00
2023-12-22T03:32:27.115Z,2179.00
2023-12-22T03:33:27.087Z,2178.00
2023-12-22T03:34:27.136Z,2174.00
2023-12-22T03:35:27.160Z,2173.00
2023-12-22T03:36:27.110Z,2171.00
2023-12-22T03:37:27.182Z,2171.00
2023-12-22T03:38:27.151Z,2171.00
2023-12-22T03:39:27.156Z,2166.00
2023-12-22T03:40:27.272Z,2167.00
2023-12-22T03:41:27.183Z,2165.00
2023-12-22T03:42:27.211Z,2165.00
2023-12-22T03:43:27.235Z,2166.00
2023-12-22T03:44:27.236Z,2163.00
2023-12-22T03:45:27.237Z,2160.00
2023-12-22T03:46:27.290Z,2163.00
2023-12-22T03:47:27.296Z,2161.00
2023-12-22T03:48:27.301Z,2160.00
2023-12-22T03:49:27.322Z,2157.00
2023-12-22T03:50:27.312Z,2156.00
2023-12-22T03:51:27.356Z,2155.00
2023-12-22T03:52:27.451Z,2155.00
2023-12-22T03:53:27.349Z,2153.00
2023-12-22T03:54:27.370Z,2152.00
2023-12-22T03:55:27.450Z,2152.00
2023-12-22T03:56:27.402Z,2152.00
2023-12-22T03:57:27.412Z,2153.00
2023-12-22T03:58:27.492Z,2155.00
2023-12-22T03:59:27.452Z,2158.00
2023-12-22T04:00:27.472Z,2160.00
2023-12-22T04:01:27.576Z,2155.00
2023-12-22T04:02:27.504Z,2150.00
2023-12-22T04:03:27.584Z,2148.00
2023-12-22T04:04:27.564Z,2144.00
2023-12-22T04:05:27.569Z,2144.00
2023-12-22T04:06:27.574Z,2145.00
2023-12-22T04:07:27.635Z,2147.00
2023-12-22T04:08:27.595Z,2147.00
2023-12-22T04:09:27.623Z,2143.00
2023-12-22T04:10:27.659Z,2139.00
2023-12-22T04:11:27.665Z,2137.00
2023-12-22T04:12:27.703Z,2138.00
2023-12-22T04:13:27.768Z,2140.00
2023-12-22T04:14:27.745Z,2141.00
2023-12-22T04:15:27.829Z,2144.00
2023-12-22T04:16:27.869Z,2142.00
2023-12-22T04:17:27.946Z,2141.00
2023-12-22T04:18:28.094Z,2140.00
2023-12-22T04:19:28.300Z,2136.00
2023-12-22T04:20:28.173Z,2132.00
2023-12-22T04:21:28.230Z,2131.00
2023-12-22T04:22:28.384Z,2130.00
2023-12-22T04:23:28.376Z,2127.00
2023-12-22T04:24:28.444Z,2122.00
2023-12-22T04:25:28.529Z,2121.00
2023-12-22T04:26:28.583Z,2120.00
2023-12-22T04:27:28.677Z,2116.00
2023-12-22T04:28:28.757Z,2116.00
2023-12-22T04:29:36.158Z,2105.00
2023-12-22T04:30:36.197Z,2105.00
2023-12-22T04:31:43.392Z,2096.00
2023-12-22T04:32:43.445Z,2105.00
2023-12-22T04:33:43.450Z,2110.00
2023-12-22T04:34:43.592Z,2104.00
2023-12-22T04:35:43.403Z,2096.00
2023-12-22T04:36:43.456Z,2095.00
2023-12-22T04:37:43.465Z,2093.00
2023-12-22T04:38:43.447Z,2096.00
2023-12-22T04:39:43.497Z,2091.00
2023-12-22T04:40:43.568Z,2092.00
2023-12-22T04:41:43.616Z,2096.00
2023-12-22T04:42:43.683Z,2099.00
2023-12-22T04:43:43.791Z,2100.00
2023-12-22T04:44:43.792Z,2097.00
2023-12-22T04:45:43.865Z,2097.00
2023-12-22T04:46:44.021Z,2100.00
2023-12-22T04:47:44.015Z,2097.00
2023-12-22T04:48:44.095Z,2097.00
2023-12-22T04:49:44.118Z,2096.00
2023-12-22T04:50:44.140Z,2094.00
2023-12-22T04:51:44.226Z,2093.00
2023-12-22T04:52:44.402Z,2098.00
2023-12-22T04:53:44.405Z,2097.00
2023-12-22T04:54:44.413Z,2095.00
2023-12-22T04:55:44.495Z,2097.00
2023-12-22T04:56:44.521Z,2097.00
2023-12-22T04:57:44.587Z,2094.00
2023-12-22T04:58:44.660Z,2089.00
2023-12-22T04:59:44.696Z,2091.00
2023-12-22T05:00:44.779Z,2092.00
2023-12-22T05:01:44.825Z,2091.00
2023-12-22T05:02:44.879Z,2092.00
2023-12-22T05:03:44.964Z,2089.00
2023-12-22T05:04:45.004Z,2085.00
2023-12-22T05:05:45.069Z,2077.00
2023-12-22T05:06:45.088Z,2076.00
2023-12-22T05:07:45.158Z,2072.00
2023-12-22T05:08:45.198Z,2067.00
2023-12-22T05:09:45.264Z,2066.00
2023-12-22T05:10:45.356Z,2066.00
2023-12-22T05:11:45.389Z,2069.00
2023-12-22T05:12:45.961Z,2067.00
2023-12-22T05:13:45.556Z,2067.00
2023-12-22T05:14:45.569Z,2060.00
2023-12-22T05:15:45.620Z,2060.00
2023-12-22T05:16:45.703Z,2056.00
2023-12-22T05:17:45.882Z,2056.00
2023-12-22T05:18:45.805Z,2056.00
2023-12-22T05:19:45.964Z,2057.00
2023-12-22T05:20:45.912Z,2059.00
2023-12-22T05:21:45.970Z,2060.00
2023-12-22T05:22:46.052Z,2058.00
2023-12-22T05:23:46.110Z,2056.00
2023-12-22T05:24:46.157Z,2054.00
2023-12-22T05:25:46.236Z,2054.00
2023-12-22T05:26:46.269Z,2054.00
2023-12-22T05:27:46.381Z,2049.00
2023-12-22T05:28:46.426Z,2044.00
2023-12-22T05:29:46.429Z,2040.00
2023-12-22T05:30:46.492Z,2042.00
2023-12-22T05:31:46.589Z,2036.00
2023-12-22T05:32:46.631Z,2037.00
2023-12-22T05:33:46.679Z,2036.00
2023-12-22T05:34:46.807Z,2034.00
2023-12-22T05:35:46.977Z,2029.00
2023-12-22T05:36:46.875Z,2031.00
2023-12-22T05:37:47.208Z,2030.00
2023-12-22T05:38:46.980Z,2030.00
2023-12-22T05:39:47.034Z,2029.00
2023-12-22T05:40:47.148Z,2029.00
2023-12-22T05:41:47.157Z,2028.00
2023-12-22T05:42:47.215Z,2026.00
2023-12-22T05:43:47.296Z,2027.00
2023-12-22T05:44:47.340Z,2027.00
2023-12-22T05:45:47.389Z,2031.00
2023-12-22T05:46:47.550Z,2035.00
2023-12-22T05:47:47.853Z,2033.00
2023-12-22T05:48:47.705Z,2032.00
2023-12-22T05:49:47.751Z,2028.00
2023-12-22T05:50:47.718Z,2027.00
2023-12-22T05:51:47.763Z,2028.00
2023-12-22T05:52:47.840Z,2027.00
2023-12-22T05:53:47.886Z,2030.00
2023-12-22T05:54:47.960Z,2032.00
2023-12-22T05:55:48.046Z,2031.00
2023-12-22T05:56:48.206Z,2030.00
2023-12-22T05:57:48.392Z,2029.00
2023-12-22T05:58:48.196Z,2026.00
2023-12-22T05:59:48.246Z,2025.00
2023-12-22T06:00:48.358Z,2016.00
2023-12-22T06:01:48.365Z,2015.00
2023-12-22T06:02:48.436Z,2012.00
2023-12-22T06:03:48.468Z,2012.00
2023-12-22T06:04:48.674Z,2014.00
2023-12-22T06:05:48.634Z,2011.00
2023-12-22T06:06:48.730Z,2006.00
2023-12-22T06:07:49.046Z,2007.00
2023-12-22T06:08:48.782Z,2008.00
2023-12-22T06:09:48.835Z,2011.00
2023-12-22T06:10:48.952Z,2012.00
2023-12-22T06:11:48.952Z,2012.00
2023-12-22T06:12:49.048Z,2009.00
2023-12-22T06:13:49.102Z,2007.00
2023-12-22T06:14:49.221Z,2006.00
2023-12-22T06:15:49.191Z,2003.00
2023-12-22T06:16:49.302Z,2000.00
2023-12-22T06:17:49.454Z,2001.00
2023-12-22T06:18:49.431Z,2003.00
2023-12-22T06:19:49.463Z,1999.00
2023-12-22T06:20:49.516Z,1164.00
2023-12-22T06:21:49.552Z,931.00
2023-12-22T06:22:49.672Z,973.00
2023-12-22T06:23:49.725Z,1144.00
2023-12-22T06:24:49.813Z,1081.00
2023-12-22T06:25:49.943Z,1129.00
2023-12-22T06:26:51.494Z,1137.00
2023-12-22T06:27:50.288Z,1136.00
2023-12-22T06:28:49.997Z,1142.00
2023-12-22T06:29:50.003Z,1153.00
2023-12-22T06:30:50.028Z,1177.00
2023-12-22T06:31:50.096Z,1191.00
2023-12-22T06:32:50.136Z,1214.00
2023-12-22T06:33:51.185Z,1223.00
2023-12-22T06:34:50.148Z,1225.00
2023-12-22T06:35:50.133Z,1222.00
2023-12-22T06:36:50.154Z,1220.00
2023-12-22T06:37:50.397Z,1221.00
2023-12-22T06:38:50.232Z,1226.00
2023-12-22T06:39:50.315Z,1234.00
2023-12-22T06:40:50.495Z,1248.00
2023-12-22T06:41:50.461Z,1262.00
2023-12-22T06:42:50.513Z,1272.00
2023-12-22T06:43:50.653Z,1279.00
2023-12-22T06:44:50.672Z,1285.00
2023-12-22T06:45:50.783Z,1287.00
2023-12-22T06:46:50.858Z,1289.00
2023-12-22T06:47:51.217Z,1291.00
2023-12-22T06:48:51.111Z,1297.00
2023-12-22T06:49:51.123Z,1303.00
2023-12-22T06:50:51.084Z,1304.00
2023-12-22T06:51:51.100Z,1309.00
2023-12-22T06:52:51.254Z,1314.00
2023-12-22T06:53:51.486Z,1319.00
2023-12-22T06:54:51.396Z,1327.00
2023-12-22T06:55:51.379Z,1336.00
2023-12-22T06:56:51.630Z,1335.00
2023-12-22T06:57:51.620Z,1338.00
2023-12-22T06:58:51.660Z,1335.00
2023-12-22T06:59:52.465Z,1340.00
2023-12-22T07:00:51.699Z,1341.00
2023-12-22T07:01:59.613Z,1346.00
2023-12-22T07:02:52.780Z,1350.00
2023-12-22T07:03:51.808Z,1351.00
2023-12-22T07:04:51.780Z,1354.00
2023-12-22T07:05:51.873Z,1353.00
2023-12-22T07:06:51.771Z,1347.00
2023-12-22T07:07:52.056Z,1348.00
2023-12-22T07:08:53.499Z,1349.00
2023-12-22T07:09:51.818Z,1363.00
2023-12-22T07:10:51.827Z,1380.00
2023-12-22T07:11:51.854Z,1387.00
2023-12-22T07:12:51.869Z,1390.00
2023-12-22T07:13:51.882Z,1397.00
2023-12-22T07:14:51.882Z,1407.00
2023-12-22T07:15:52.736Z,1414.00
2023-12-22T07:16:51.937Z,1420.00
2023-12-22T07:17:53.825Z,1427.00
2023-12-22T07:18:51.961Z,1436.00
2023-12-22T07:19:51.955Z,1450.00
2023-12-22T07:20:51.941Z,1453.00
2023-12-22T07:21:51.947Z,1461.00
2023-12-22T07:22:52.057Z,1464.00
2023-12-22T07:23:51.976Z,1464.00
2023-12-22T07:24:52.998Z,1462.00
2023-12-22T07:25:52.096Z,1458.00
2023-12-22T07:26:52.139Z,1454.00
2023-12-22T07:27:52.412Z,1459.00
2023-12-22T07:28:53.660Z,1459.00
2023-12-22T07:29:52.330Z,1459.00
2023-12-22T07:30:52.343Z,1460.00
2023-12-22T07:31:52.417Z,1459.00
2023-12-22T07:32:52.497Z,1459.00
2023-12-22T07:33:52.556Z,1457.00
2023-12-22T07:34:52.654Z,1457.00
2023-12-22T07:35:52.638Z,1459.00
2023-12-22T07:37:03.179Z,1456.00
2023-12-22T07:37:55.104Z,1457.00
2023-12-22T07:38:52.665Z,1456.00
2023-12-22T07:39:52.683Z,1456.00
2023-12-22T07:40:53.531Z,1455.00
2023-12-22T07:41:52.673Z,1456.00
2023-12-22T07:42:52.691Z,1457.00
2023-12-22T07:43:52.785Z,1457.00
2023-12-22T07:44:52.708Z,1457.00
2023-12-22T07:45:52.810Z,1451.00
2023-12-22T07:46:52.777Z,1450.00
2023-12-22T07:47:52.938Z,1450.00
2023-12-22T07:48:52.982Z,1448.00
2023-12-22T07:49:52.911Z,1448.00
2023-12-22T07:50:52.936Z,1448.00
2023-12-22T07:51:52.759Z,1445.00
2023-12-22T07:52:52.792Z,1446.00
2023-12-22T07:53:52.772Z,1442.00
2023-12-22T07:54:52.832Z,1443.00
2023-12-22T07:55:52.934Z,1441.00
2023-12-22T07:56:52.897Z,1437.00
2023-12-22T07:57:52.958Z,1433.00
2023-12-22T07:58:53.021Z,1429.00
2023-12-22T07:59:53.523Z,1430.00
2023-12-22T08:00:53.135Z,1429.00
2023-12-22T08:01:55.084Z,1423.00
2023-12-22T08:02:53.206Z,1422.00
2023-12-22T08:03:53.381Z,1423.00
2023-12-22T08:04:53.335Z,1419.00
2023-12-22T08:05:53.520Z,1421.00
2023-12-22T08:06:53.689Z,1417.00
2023-12-22T08:07:54.076Z,1416.00
2023-12-22T08:08:53.508Z,1416.00
2023-12-22T08:09:53.560Z,1413.00
2023-12-22T08:10:53.634Z,1411.00
2023-12-22T08:11:53.715Z,1408.00
2023-12-22T08:12:54.521Z,1406.00
2023-12-22T08:13:53.801Z,1404.00
2023-12-22T08:14:53.827Z,1406.00
2023-12-22T08:15:53.880Z,1407.00
2023-12-22T08:16:53.967Z,1412.00
2023-12-22T08:17:54.650Z,1412.00
2023-12-22T08:18:54.132Z,1438.00
2023-12-22T08:19:54.885Z,1556.00
2023-12-22T08:20:54.647Z,1561.00
2023-12-22T08:21:54.656Z,1597.00
2023-12-22T08:22:55.305Z,1640.00
2023-12-22T08:23:56.350Z,1678.00
2023-12-22T08:24:54.455Z,1738.00
2023-12-22T08:25:54.541Z,1755.00
2023-12-22T08:26:54.481Z,1785.00
2023-12-22T08:27:54.535Z,1807.00
2023-12-22T08:28:54.680Z,1825.00
2023-12-22T08:29:54.639Z,1857.00
2023-12-22T08:30:54.669Z,1882.00
2023-12-22T08:31:54.753Z,1897.00
2023-12-22T08:32:54.861Z,1925.00
2023-12-22T08:33:54.860Z,1949.00
2023-12-22T08:34:54.853Z,1967.00
2023-12-22T08:35:54.873Z,1992.00
2023-12-22T08:36:54.955Z,2010.00
2023-12-22T08:37:55.064Z,2033.00
2023-12-22T08:38:55.562Z,2067.00
2023-12-22T08:39:54.936Z,2085.00
2023-12-22T08:40:58.054Z,2114.00
2023-12-22T08:41:54.940Z,2140.00
2023-12-22T08:42:54.939Z,2160.00
2023-12-22T08:43:55.022Z,2181.00
2023-12-22T08:44:55.008Z,2203.00
2023-12-22T08:45:54.947Z,2228.00
2023-12-22T08:46:54.978Z,2271.00
2023-12-22T08:47:55.008Z,2294.00
2023-12-22T08:48:54.966Z,2315.00
2023-12-22T08:49:55.006Z,2334.00
2023-12-22T08:50:54.919Z,2362.00
2023-12-22T08:51:54.942Z,2381.00
2023-12-22T08:52:54.972Z,2407.00
2023-12-22T08:53:55.532Z,2429.00
2023-12-22T08:54:54.916Z,2455.00
2023-12-22T08:55:54.943Z,2475.00
2023-12-22T08:56:54.912Z,2501.00
2023-12-22T08:58:00.015Z,2533.00
2023-12-22T08:58:56.109Z,2567.00
2023-12-22T08:59:54.901Z,2590.00
2023-12-22T09:00:55.069Z,2614.00
2023-12-22T09:01:54.938Z,2639.00
2023-12-22T09:02:55.292Z,2660.00
2023-12-22T09:03:54.903Z,2688.00
2023-12-22T09:04:54.953Z,2709.00
2023-12-22T09:05:54.923Z,2725.00
2023-12-22T09:06:54.895Z,2742.00
2023-12-22T09:07:55.340Z,2771.00
2023-12-22T09:08:55.083Z,2800.00
2023-12-22T09:09:54.933Z,2819.00
2023-12-22T09:10:55.000Z,2832.00
2023-12-22T09:11:55.050Z,2849.00
2023-12-22T09:12:55.074Z,2866.00
2023-12-22T09:13:55.174Z,2872.00
2023-12-22T09:14:56.047Z,2875.00
2023-12-22T09:15:55.194Z,2874.00
2023-12-22T09:16:56.089Z,2870.00
2023-12-22T09:17:55.567Z,2865.00
2023-12-22T09:18:55.333Z,1753.00
2023-12-22T09:19:55.375Z,1325.00
2023-12-22T09:20:55.385Z,1655.00
2023-12-22T09:21:55.375Z,1727.00
2023-12-22T09:22:55.416Z,1776.00
2023-12-22T09:23:55.402Z,1822.00
2023-12-22T09:24:55.417Z,1927.00
2023-12-22T09:25:55.464Z,1951.00
2023-12-22T09:26:55.406Z,2012.00
2023-12-22T09:27:55.411Z,2067.00
2023-12-22T09:28:56.456Z,2172.00
2023-12-22T09:29:55.398Z,2223.00
2023-12-22T09:30:55.496Z,2246.00
2023-12-22T09:31:55.483Z,2384.00
2023-12-22T09:32:57.084Z,2423.00
2023-12-22T09:33:55.622Z,2426.00
2023-12-22T09:34:57.140Z,2441.00
2023-12-22T09:35:55.406Z,2551.00
2023-12-22T09:36:55.412Z,2570.00
2023-12-22T09:37:55.534Z,2601.00
2023-12-22T09:38:55.422Z,2502.00
2023-12-22T09:39:55.423Z,2536.00
2023-12-22T09:40:55.466Z,2453.00
2023-12-22T09:41:55.400Z,2472.00
2023-12-22T09:42:56.274Z,2198.00
2023-12-22T09:43:55.435Z,2199.00
2023-12-22T09:44:55.436Z,2192.00
2023-12-22T09:45:55.479Z,2143.00
2023-12-22T09:46:55.460Z,2040.00
2023-12-22T09:47:55.614Z,1846.00
2023-12-22T09:48:55.571Z,1705.00
2023-12-22T09:49:55.661Z,1737.00
2023-12-22T09:50:55.784Z,1529.00
2023-12-22T09:51:55.711Z,1572.00
2023-12-22T09:52:55.768Z,1339.00
2023-12-22T09:53:55.775Z,1399.00
2023-12-22T09:54:55.807Z,1363.00
2023-12-22T09:55:55.933Z,1353.00
2023-12-22T09:56:55.830Z,1347.00
2023-12-22T09:57:55.832Z,1370.00
2023-12-22T09:58:55.932Z,1403.00
2023-12-22T09:59:55.958Z,1501.00
2023-12-22T10:00:56.901Z,1549.00
2023-12-22T10:01:57.606Z,1732.00
2023-12-22T10:02:55.863Z,1880.00
2023-12-22T10:03:55.880Z,1701.00
2023-12-22T10:04:56.517Z,1668.00
2023-12-22T10:05:55.898Z,1638.00
2023-12-22T10:06:55.852Z,1637.00
2023-12-22T10:07:55.931Z,1640.00
2023-12-22T10:08:55.862Z,1654.00
2023-12-22T10:09:55.854Z,1668.00
2023-12-22T10:10:55.894Z,1678.00
2023-12-22T10:11:55.853Z,1678.00
2023-12-22T10:12:55.861Z,1679.00
2023-12-22T10:13:55.947Z,1680.00
2023-12-22T10:14:55.835Z,1678.00
2023-12-22T10:15:55.862Z,1679.00
2023-12-22T10:16:55.856Z,1678.00
2023-12-22T10:17:55.859Z,1676.00
2023-12-22T10:18:55.858Z,1675.00
2023-12-22T10:19:55.853Z,1672.00
2023-12-22T10:20:55.828Z,1670.00
2023-12-22T10:21:55.816Z,1666.00
2023-12-22T10:22:55.839Z,1668.00
2023-12-22T10:23:55.823Z,1670.00
2023-12-22T10:24:55.882Z,1673.00
2023-12-22T10:25:56.714Z,1673.00
2023-12-22T10:26:57.385Z,1674.00
2023-12-22T10:27:55.836Z,1675.00
2023-12-22T10:28:55.861Z,1676.00
2023-12-22T10:29:55.849Z,1673.00
2023-12-22T10:30:55.868Z,1672.00
2023-12-22T10:31:55.913Z,1670.00
2023-12-22T10:32:56.044Z,1669.00
2023-12-22T10:33:55.967Z,1668.00
2023-12-22T10:34:56.012Z,1667.00
2023-12-22T10:35:55.994Z,1667.00
2023-12-22T10:36:56.010Z,1668.00
2023-12-22T10:37:56.049Z,1669.00
2023-12-22T10:38:56.046Z,1664.00
2023-12-22T10:39:56.111Z,1665.00
2023-12-22T10:40:56.231Z,1663.00
2023-12-22T10:41:56.135Z,1658.00
2023-12-22T10:42:56.151Z,1658.00
2023-12-22T10:43:56.223Z,1660.00
2023-12-22T10:44:56.228Z,1660.00
2023-12-22T10:45:56.241Z,1658.00
2023-12-22T10:46:56.392Z,1656.00
2023-12-22T10:47:56.351Z,1655.00
2023-12-22T10:48:56.366Z,1654.00
2023-12-22T10:49:56.407Z,1653.00
2023-12-22T10:50:56.398Z,1652.00
2023-12-22T10:51:56.441Z,1649.00
2023-12-22T10:52:56.551Z,1649.00
2023-12-22T10:53:56.485Z,1654.00
2023-12-22T10:54:56.518Z,1657.00
2023-12-22T10:55:56.563Z,1655.00
2023-12-22T10:56:56.581Z,1656.00
2023-12-22T10:57:56.618Z,1655.00
2023-12-22T10:58:56.687Z,1656.00
2023-12-22T10:59:58.199Z,1657.00
2023-12-22T11:00:56.730Z,1654.00
2023-12-22T11:01:56.777Z,1653.00
2023-12-22T11:02:56.837Z,1649.00
2023-12-22T11:03:56.841Z,1647.00
2023-12-22T11:04:56.881Z,1646.00
2023-12-22T11:05:56.947Z,1645.00
2023-12-22T11:06:56.925Z,1639.00
2023-12-22T11:07:56.976Z,1635.00
2023-12-22T11:08:56.968Z,1638.00
2023-12-22T11:09:57.003Z,1641.00
2023-12-22T11:10:57.599Z,1645.00
2023-12-22T11:11:57.075Z,1645.00
2023-12-22T11:12:57.096Z,1644.00
2023-12-22T11:13:57.204Z,1641.00
2023-12-22T11:14:57.163Z,1641.00
2023-12-22T11:15:57.178Z,1645.00
2023-12-22T11:16:57.238Z,1643.00
2023-12-22T11:17:57.371Z,1641.00
2023-12-22T11:18:57.369Z,1640.00
2023-12-22T11:19:57.344Z,1644.00
2023-12-22T11:20:57.351Z,1640.00
2023-12-22T11:21:57.379Z,1641.00
2023-12-22T11:22:57.465Z,1642.00
2023-12-22T11:23:57.434Z,1638.00
2023-12-22T11:24:57.496Z,1640.00
2023-12-22T11:25:57.608Z,1637.00
2023-12-22T11:26:57.549Z,1639.00
2023-12-22T11:27:57.586Z,1638.00
2023-12-22T11:28:57.676Z,1636.00
2023-12-22T11:29:57.654Z,1635.00
2023-12-22T11:30:58.806Z,1635.00
2023-12-22T11:31:57.841Z,1635.00
2023-12-22T11:32:57.865Z,1637.00
2023-12-22T11:34:04.279Z,1639.00
2023-12-22T11:34:58.927Z,1643.00
2023-12-22T11:35:57.825Z,1646.00
2023-12-22T11:36:57.823Z,1644.00
2023-12-22T11:37:57.828Z,1640.00
2023-12-22T11:38:57.833Z,1641.00
2023-12-22T11:39:57.840Z,1639.00
2023-12-22T11:40:57.869Z,1635.00
2023-12-22T11:41:57.841Z,1633.00
2023-12-22T11:42:57.852Z,1631.00
2023-12-22T11:43:57.904Z,1629.00
2023-12-22T11:44:57.852Z,1632.00
2023-12-22T11:45:57.867Z,1634.00
2023-12-22T11:46:57.910Z,1632.00
2023-12-22T11:47:57.891Z,1631.00
2023-12-22T11:48:57.921Z,1629.00
2023-12-22T11:49:57.894Z,1631.00
2023-12-22T11:50:57.885Z,1627.00
2023-12-22T11:51:57.926Z,1625.00
2023-12-22T11:52:58.028Z,1624.00
2023-12-22T11:53:58.004Z,1621.00
2023-12-22T11:54:58.634Z,1619.00
2023-12-22T11:55:58.207Z,1619.00
2023-12-22T11:56:58.119Z,1618.00
2023-12-22T11:57:58.168Z,1620.00
2023-12-22T11:58:58.222Z,1617.00
2023-12-22T11:59:58.266Z,1618.00
2023-12-22T12:00:58.365Z,1621.00
2023-12-22T12:01:59.261Z,1621.00
2023-12-22T12:02:58.416Z,1624.00
2023-12-22T12:03:58.474Z,1628.00
2023-12-22T12:04:58.496Z,1626.00
2023-12-22T12:05:58.552Z,1626.00